createdAt,value
2019-06-08T00:01:37.628Z,16.04
2019-06-08T00:04:07.009Z,16.00
2019-06-08T00:06:36.457Z,15.97
2019-06-08T00:09:06.903Z,15.98
2019-06-08T00:11:36.589Z,15.96
2019-06-08T00:14:06.573Z,15.95
2019-06-08T00:16:35.974Z,15.93
2019-06-08T00:19:05.469Z,15.93
2019-06-08T00:21:34.833Z,15.89
2019-06-08T00:24:04.821Z,15.88
2019-06-08T00:26:34.551Z,15.86
2019-06-08T00:29:03.928Z,15.89
2019-06-08T00:31:33.570Z,15.94
2019-06-08T00:34:02.958Z,15.94
2019-06-08T00:36:32.511Z,15.96
2019-06-08T00:39:03.647Z,15.95
2019-06-08T00:41:33.565Z,15.93
2019-06-08T00:44:02.945Z,15.92
2019-06-08T00:46:32.600Z,15.90
2019-06-08T00:49:01.986Z,15.87
2019-06-08T00:51:31.553Z,15.89
2019-06-08T00:54:00.938Z,15.86
2019-06-08T00:56:30.611Z,15.84
2019-06-08T00:59:00.036Z,15.85
2019-06-08T01:01:30.866Z,15.91
2019-06-08T01:04:00.669Z,15.89
2019-06-08T01:06:30.035Z,15.86
2019-06-08T01:08:59.706Z,15.84
2019-06-08T01:11:29.062Z,15.84
2019-06-08T01:13:58.735Z,15.82
2019-06-08T01:16:29.246Z,15.87
2019-06-08T01:18:58.901Z,15.88
2019-06-08T01:21:30.045Z,15.89
2019-06-08T01:23:59.743Z,15.92
2019-06-08T01:26:30.179Z,15.93
2019-06-08T01:28:59.903Z,15.93
2019-06-08T01:31:30.521Z,15.94
2019-06-08T01:33:59.952Z,15.92
2019-06-08T01:36:31.099Z,15.92
2019-06-08T01:39:00.927Z,15.92
2019-06-08T01:41:31.923Z,15.93
2019-06-08T01:44:01.602Z,15.93
2019-06-08T01:46:32.301Z,15.89
2019-06-08T01:49:02.112Z,15.87
2019-06-08T01:51:32.745Z,15.86
2019-06-08T01:54:02.413Z,15.86
2019-06-08T01:56:31.845Z,15.83
2019-06-08T01:59:01.223Z,15.79
2019-06-08T02:01:32.000Z,15.74
2019-06-08T02:04:02.631Z,15.73
2019-06-08T02:06:32.478Z,15.73
2019-06-08T02:09:02.135Z,15.72
2019-06-08T02:11:33.022Z,15.71
2019-06-08T02:14:02.784Z,15.70
2019-06-08T02:16:33.306Z,15.67
2019-06-08T02:19:03.036Z,15.66
2019-06-08T02:21:34.904Z,15.64
2019-06-08T02:24:05.085Z,15.63
2019-06-08T02:26:36.309Z,15.62
2019-06-08T02:29:06.065Z,15.59
2019-06-08T02:31:37.687Z,15.56
2019-06-08T02:34:07.209Z,15.51
2019-06-08T02:36:37.845Z,15.52
2019-06-08T02:39:08.360Z,15.54
2019-06-08T02:41:39.809Z,15.54
2019-06-08T02:44:09.230Z,15.57
2019-06-08T02:46:40.501Z,15.57
2019-06-08T02:49:10.145Z,15.55
2019-06-08T02:51:41.178Z,15.54
2019-06-08T02:54:11.810Z,15.55
2019-06-08T02:56:42.042Z,15.56
2019-06-08T02:59:14.649Z,15.53
2019-06-08T03:01:46.112Z,15.52
2019-06-08T03:04:16.943Z,15.51
2019-06-08T03:06:46.370Z,15.47
2019-06-08T03:09:17.143Z,15.46
2019-06-08T03:11:47.101Z,15.35
2019-06-08T03:14:19.039Z,15.36
2019-06-08T03:16:48.421Z,15.36
2019-06-08T03:19:22.340Z,15.39
2019-06-08T03:21:49.023Z,15.36
2019-06-08T03:24:18.378Z,15.34
2019-06-08T03:26:48.045Z,15.31
2019-06-08T03:29:17.404Z,15.29
2019-06-08T03:31:55.071Z,15.32
2019-06-08T03:34:18.068Z,15.32
2019-06-08T03:36:55.239Z,15.30
2019-06-08T03:39:19.462Z,15.31
2019-06-08T03:41:49.065Z,15.30
2019-06-08T03:44:18.448Z,15.26
2019-06-08T03:46:48.027Z,15.24
2019-06-08T03:49:17.415Z,15.23
2019-06-08T03:51:48.964Z,15.28
2019-06-08T03:54:18.038Z,15.31
2019-06-08T03:56:47.422Z,15.37
2019-06-08T03:59:17.157Z,15.37
2019-06-08T04:01:47.537Z,15.39
2019-06-08T04:04:17.017Z,15.42
2019-06-08T04:06:46.395Z,15.43
2019-06-08T04:09:15.957Z,15.42
2019-06-08T04:11:46.809Z,15.43
2019-06-08T04:14:17.244Z,15.39
2019-06-08T04:16:47.090Z,15.36
2019-06-08T04:19:16.574Z,15.35
2019-06-08T04:21:46.380Z,15.32
2019-06-08T04:24:17.025Z,15.32
2019-06-08T04:26:47.246Z,15.31
2019-06-08T04:29:17.621Z,15.32
2019-06-08T04:31:47.124Z,15.32
2019-06-08T04:34:16.487Z,15.34
2019-06-08T04:36:48.569Z,15.37
2019-06-08T04:39:18.989Z,15.41
2019-06-08T04:41:48.367Z,15.42
2019-06-08T04:44:17.722Z,15.42
2019-06-08T04:46:49.367Z,15.43
2019-06-08T04:49:18.246Z,15.49
2019-06-08T04:51:49.470Z,15.57
2019-06-08T04:54:19.059Z,15.64
2019-06-08T04:56:49.320Z,15.72
2019-06-08T04:59:19.309Z,15.79
2019-06-08T05:01:49.262Z,15.81
2019-06-08T05:04:19.089Z,15.86
2019-06-08T05:06:49.420Z,15.89
2019-06-08T05:09:19.121Z,15.98
2019-06-08T05:11:49.699Z,16.03
2019-06-08T05:14:19.343Z,16.05
2019-06-08T05:16:49.648Z,16.07
2019-06-08T05:19:19.201Z,16.12
2019-06-08T05:21:49.901Z,16.15
2019-06-08T05:24:20.387Z,16.20
2019-06-08T05:26:49.810Z,16.22
2019-06-08T05:29:19.260Z,16.20
2019-06-08T05:31:49.893Z,16.23
2019-06-08T05:34:19.525Z,16.19
2019-06-08T05:36:50.052Z,16.22
2019-06-08T05:39:19.544Z,16.30
2019-06-08T05:41:49.870Z,16.37
2019-06-08T05:44:19.269Z,16.39
2019-06-08T05:46:49.825Z,16.41
2019-06-08T05:49:19.393Z,16.43
2019-06-08T05:51:50.100Z,16.42
2019-06-08T05:54:20.477Z,16.43
2019-06-08T05:56:50.441Z,16.43
2019-06-08T05:59:20.596Z,16.48
2019-06-08T06:01:51.031Z,16.54
2019-06-08T06:04:20.600Z,16.58
2019-06-08T06:06:50.947Z,16.63
2019-06-08T06:09:20.383Z,16.66
2019-06-08T06:11:51.001Z,16.73
2019-06-08T06:14:20.508Z,16.78
2019-06-08T06:16:51.314Z,16.82
2019-06-08T06:19:21.680Z,16.88
2019-06-08T06:21:52.466Z,16.93
2019-06-08T06:24:22.114Z,16.98
2019-06-08T06:26:51.791Z,16.95
2019-06-08T06:29:21.372Z,16.91
2019-06-08T06:31:52.170Z,16.90
2019-06-08T06:34:21.537Z,16.97
2019-06-08T06:36:52.153Z,17.01
2019-06-08T06:39:22.517Z,17.00
2019-06-08T06:41:52.231Z,16.94
2019-06-08T06:44:21.544Z,16.88
2019-06-08T06:46:52.491Z,16.88
2019-06-08T06:49:22.210Z,16.84
2019-06-08T06:51:52.678Z,16.84
2019-06-08T06:54:22.302Z,16.81
2019-06-08T06:56:51.923Z,16.79
2019-06-08T06:59:21.411Z,16.73
2019-06-08T07:01:55.797Z,16.70
2019-06-08T07:04:22.802Z,16.64
2019-06-08T07:06:52.371Z,16.59
2019-06-08T07:09:21.725Z,16.58
2019-06-08T07:11:53.094Z,16.51
2019-06-08T07:14:22.468Z,16.44
2019-06-08T07:16:51.990Z,16.42
2019-06-08T07:19:21.403Z,16.46
2019-06-08T07:21:50.785Z,16.45
2019-06-08T07:24:20.595Z,16.46
2019-06-08T07:26:50.415Z,16.46
2019-06-08T07:29:19.824Z,16.44
2019-06-08T07:31:50.313Z,16.51
2019-06-08T07:34:20.770Z,16.59
2019-06-08T07:36:51.321Z,16.68
2019-06-08T07:39:20.674Z,16.72
2019-06-08T07:41:56.028Z,16.79
2019-06-08T07:44:25.510Z,16.88
2019-06-08T07:46:55.852Z,16.92
2019-06-08T07:49:25.889Z,17.03
2019-06-08T07:52:07.417Z,17.18
2019-06-08T07:54:26.795Z,17.31
2019-06-08T07:56:59.079Z,17.34
2019-06-08T07:59:28.526Z,17.30
2019-06-08T08:02:03.730Z,17.25
2019-06-08T08:04:33.389Z,17.18
2019-06-08T08:07:02.802Z,17.13
2019-06-08T08:09:32.558Z,17.15
2019-06-08T08:12:01.925Z,17.10
2019-06-08T08:14:31.646Z,17.02
2019-06-08T08:17:01.069Z,16.94
2019-06-08T08:19:30.538Z,16.86
2019-06-08T08:22:18.493Z,16.76
2019-06-08T08:24:32.840Z,16.65
2019-06-08T08:27:03.819Z,16.60
2019-06-08T08:29:33.629Z,16.60
2019-06-08T08:32:04.871Z,16.63
2019-06-08T08:34:34.587Z,16.62
2019-06-08T08:37:06.378Z,16.64
2019-06-08T08:39:37.472Z,16.64
2019-06-08T08:42:08.331Z,16.75
2019-06-08T08:44:38.045Z,16.83
2019-06-08T08:47:07.893Z,16.92
2019-06-08T08:49:38.134Z,16.98
2019-06-08T08:52:11.166Z,17.08
2019-06-08T08:54:38.887Z,17.11
2019-06-08T08:57:08.666Z,17.04
2019-06-08T08:59:38.367Z,17.08
2019-06-08T09:02:11.378Z,17.10
2019-06-08T09:04:39.153Z,17.16
2019-06-08T09:07:10.447Z,17.23
2019-06-08T09:09:40.071Z,17.20
2019-06-08T09:12:09.750Z,17.15
2019-06-08T09:14:41.525Z,17.09
2019-06-08T09:17:10.352Z,17.06
2019-06-08T09:19:39.737Z,17.08
2019-06-08T09:22:09.344Z,17.12
2019-06-08T09:24:39.157Z,17.19
2019-06-08T09:27:08.851Z,17.21
2019-06-08T09:29:38.784Z,17.20
2019-06-08T09:32:08.556Z,17.21
2019-06-08T09:34:38.572Z,17.23
2019-06-08T09:37:08.622Z,17.27
2019-06-08T09:39:38.600Z,17.21
2019-06-08T09:42:09.006Z,17.25
2019-06-08T09:44:39.803Z,17.38
2019-06-08T09:47:12.331Z,17.50
2019-06-08T09:49:41.562Z,17.62
2019-06-08T09:55:09.360Z,17.58
2019-06-08T09:57:39.214Z,17.62
2019-06-08T10:00:17.818Z,17.59
2019-06-08T10:02:41.814Z,17.64
2019-06-08T10:05:11.177Z,17.70
2019-06-08T10:07:40.808Z,17.85
2019-06-08T10:10:11.518Z,17.95
2019-06-08T10:12:41.259Z,17.94
2019-06-08T10:15:11.393Z,17.89
2019-06-08T10:17:40.854Z,17.66
2019-06-08T10:20:10.567Z,17.65
2019-06-08T10:22:39.945Z,17.70
2019-06-08T10:25:11.252Z,17.67
2019-06-08T10:27:40.817Z,17.56
2019-06-08T10:30:10.850Z,17.50
2019-06-08T10:32:40.281Z,17.54
2019-06-08T10:35:10.729Z,17.72
2019-06-08T10:37:40.177Z,18.18
2019-06-08T10:40:10.229Z,18.52
2019-06-08T10:42:40.317Z,18.68
2019-06-08T10:45:14.641Z,18.77
2019-06-08T10:47:41.341Z,19.00
2019-06-08T10:50:15.366Z,19.24
2019-06-08T10:52:43.864Z,19.28
2019-06-08T10:55:13.328Z,19.24
2019-06-08T10:57:42.797Z,19.33
2019-06-08T11:00:22.745Z,19.48
2019-06-08T11:02:48.712Z,19.54
2019-06-08T11:05:18.075Z,19.60
2019-06-08T11:07:48.095Z,19.62
2019-06-08T11:10:19.111Z,19.66
2019-06-08T11:12:48.858Z,19.70
2019-06-08T11:15:18.229Z,19.60
2019-06-08T11:17:48.563Z,19.59
2019-06-08T11:20:19.204Z,19.56
2019-06-08T11:22:50.120Z,19.58
2019-06-08T11:25:20.170Z,19.61
2019-06-08T11:27:49.579Z,19.59
2019-06-08T11:30:23.420Z,19.49
2019-06-08T11:32:50.249Z,19.41
2019-06-08T11:35:19.700Z,19.43
2019-06-08T11:37:49.131Z,19.48
2019-06-08T11:40:20.886Z,19.37
2019-06-08T11:42:49.636Z,19.34
2019-06-08T11:45:19.135Z,19.36
2019-06-08T11:47:48.601Z,19.57
2019-06-08T11:50:21.337Z,19.52
2019-06-08T11:52:51.004Z,19.47
2019-06-08T11:55:20.379Z,19.72
2019-06-08T11:57:50.077Z,20.04
2019-06-08T12:00:38.901Z,20.35
2019-06-08T12:03:08.898Z,20.53
2019-06-08T12:05:39.455Z,20.59
2019-06-08T12:08:09.117Z,20.68
2019-06-08T12:10:41.148Z,20.71
2019-06-08T12:13:11.614Z,20.67
2019-06-08T12:15:40.675Z,20.47
2019-06-08T12:18:12.257Z,20.33
2019-06-08T12:20:41.413Z,20.21
2019-06-08T12:23:12.060Z,20.10
2019-06-08T12:25:41.417Z,19.98
2019-06-08T12:28:12.665Z,19.85
2019-06-08T12:30:42.181Z,19.62
2019-06-08T12:33:12.665Z,19.18
2019-06-08T12:35:43.366Z,18.91
2019-06-08T12:38:14.176Z,19.03
2019-06-08T12:40:43.594Z,19.23
2019-06-08T12:43:14.320Z,19.35
2019-06-08T12:45:44.344Z,19.46
2019-06-08T12:48:19.545Z,19.66
2019-06-08T12:50:47.669Z,19.80
2019-06-08T12:53:20.744Z,19.74
2019-06-08T12:55:47.771Z,19.72
2019-06-08T12:58:21.799Z,19.82
2019-06-08T13:00:49.315Z,19.85
2019-06-08T13:03:18.897Z,19.83
2019-06-08T13:05:48.332Z,19.88
2019-06-08T13:08:20.197Z,19.97
2019-06-08T13:10:48.761Z,19.96
2019-06-08T13:13:23.517Z,19.84
2019-06-08T13:15:49.351Z,19.63
2019-06-08T13:18:20.193Z,19.31
2019-06-08T13:20:51.793Z,19.09
2019-06-08T13:23:21.346Z,18.94
2019-06-08T13:25:50.703Z,18.86
2019-06-08T13:28:25.075Z,18.89
2019-06-08T13:30:51.457Z,18.83
2019-06-08T13:33:20.825Z,18.81
2019-06-08T13:35:51.391Z,18.83
2019-06-08T13:38:23.114Z,18.88
2019-06-08T13:40:53.479Z,19.00
2019-06-08T13:43:24.491Z,19.16
2019-06-08T13:45:53.853Z,19.29
2019-06-08T13:48:23.424Z,19.48
2019-06-08T13:50:52.742Z,19.76
2019-06-08T13:53:27.251Z,20.06
2019-06-08T13:55:56.758Z,20.35
2019-06-08T13:58:29.708Z,20.50
2019-06-08T14:00:59.493Z,20.59
2019-06-08T14:03:27.857Z,20.66
2019-06-08T14:05:58.658Z,20.78
2019-06-08T14:08:32.851Z,20.83
2019-06-08T14:11:00.860Z,20.99
2019-06-08T14:13:34.462Z,21.08
2019-06-08T14:16:02.652Z,21.21
2019-06-08T14:18:34.312Z,21.16
2019-06-08T14:21:03.696Z,21.24
2019-06-08T14:23:33.081Z,21.30
2019-06-08T14:26:02.740Z,21.09
2019-06-08T14:28:32.442Z,21.02
2019-06-08T14:31:01.834Z,21.22
2019-06-08T14:33:33.447Z,21.40
2019-06-08T14:36:02.675Z,21.53
2019-06-08T14:38:38.451Z,21.45
2019-06-08T14:41:03.404Z,21.24
2019-06-08T14:43:32.778Z,21.08
2019-06-08T14:46:02.445Z,21.06
2019-06-08T14:48:33.994Z,21.06
2019-06-08T14:51:03.730Z,21.02
2019-06-08T14:53:33.113Z,20.97
2019-06-08T14:56:08.459Z,20.80
2019-06-08T14:58:35.153Z,20.80
2019-06-08T15:01:04.740Z,20.76
2019-06-08T15:03:34.476Z,20.76
2019-06-08T15:06:04.389Z,20.87
2019-06-08T15:08:33.771Z,20.86
2019-06-08T15:11:03.431Z,20.94
2019-06-08T15:13:32.810Z,21.11
2019-06-08T15:16:02.459Z,21.16
2019-06-08T15:18:31.944Z,21.21
2019-06-08T15:21:01.590Z,21.23
2019-06-08T15:23:32.730Z,21.31
2019-06-08T15:26:02.520Z,21.39
2019-06-08T15:28:35.876Z,21.47
2019-06-08T15:31:03.000Z,21.34
2019-06-08T15:33:33.640Z,21.30
2019-06-08T15:36:03.207Z,21.21
2019-06-08T15:38:33.531Z,21.02
2019-06-08T15:41:02.875Z,20.90
2019-06-08T15:43:36.431Z,20.81
2019-06-08T15:46:03.837Z,20.87
2019-06-08T15:48:34.256Z,20.87
2019-06-08T15:51:03.890Z,20.96
2019-06-08T15:53:34.210Z,21.05
2019-06-08T15:56:04.905Z,20.90
2019-06-08T15:58:34.627Z,20.90
2019-06-08T16:01:04.012Z,20.81
2019-06-08T16:03:33.634Z,20.83
2019-06-08T16:06:02.966Z,20.95
2019-06-08T16:08:36.545Z,21.01
2019-06-08T16:11:04.002Z,21.05
2019-06-08T16:13:34.755Z,21.05
2019-06-08T16:16:04.359Z,21.20
2019-06-08T16:18:33.752Z,21.20
2019-06-08T16:21:03.132Z,21.20
2019-06-08T16:23:33.693Z,21.22
2019-06-08T16:26:03.144Z,21.16
2019-06-08T16:28:32.608Z,21.14
2019-06-08T16:31:05.294Z,21.14
2019-06-08T16:33:33.406Z,21.22
2019-06-08T16:36:03.027Z,21.19
2019-06-08T16:38:34.169Z,21.12
2019-06-08T16:41:03.951Z,20.97
2019-06-08T16:43:33.927Z,20.84
2019-06-08T16:46:04.671Z,20.68
2019-06-08T16:48:34.621Z,20.56
2019-06-08T16:51:04.297Z,20.48
2019-06-08T16:53:34.178Z,20.41
2019-06-08T16:56:03.913Z,20.30
2019-06-08T16:58:34.281Z,20.25
2019-06-08T17:01:04.127Z,20.18
2019-06-08T17:03:34.833Z,20.23
2019-06-08T17:06:05.352Z,20.26
2019-06-08T17:08:37.583Z,20.24
2019-06-08T17:11:06.036Z,20.24
2019-06-08T17:13:36.656Z,20.17
2019-06-08T17:16:06.715Z,20.08
2019-06-08T17:18:36.296Z,20.02
2019-06-08T17:21:06.972Z,19.96
2019-06-08T17:23:36.598Z,19.85
2019-06-08T17:26:06.058Z,19.68
2019-06-08T17:28:37.167Z,19.54
2019-06-08T17:31:06.950Z,19.40
2019-06-08T17:33:37.271Z,19.39
2019-06-08T17:36:07.004Z,19.48
2019-06-08T17:38:37.196Z,19.62
2019-06-08T17:41:06.877Z,19.74
2019-06-08T17:43:36.235Z,19.79
2019-06-08T17:46:06.130Z,19.71
2019-06-08T17:48:36.489Z,19.63
2019-06-08T17:51:06.288Z,19.50
2019-06-08T17:53:36.970Z,19.38
2019-06-08T17:56:06.709Z,19.33
2019-06-08T17:58:37.192Z,19.23
2019-06-08T18:01:07.024Z,19.13
2019-06-08T18:03:38.384Z,19.03
2019-06-08T18:06:08.100Z,18.95
2019-06-08T18:08:40.604Z,18.84
2019-06-08T18:11:09.744Z,18.77
2019-06-08T18:13:42.232Z,18.73
2019-06-08T18:16:10.322Z,18.71
2019-06-08T18:18:41.862Z,18.74
2019-06-08T18:21:11.112Z,18.76
2019-06-08T18:23:42.030Z,18.72
2019-06-08T18:26:11.991Z,18.62
2019-06-08T18:28:43.489Z,18.59
2019-06-08T18:31:13.144Z,18.57
2019-06-08T18:33:45.239Z,18.48
2019-06-08T18:36:14.219Z,18.41
2019-06-08T18:38:44.611Z,18.34
2019-06-08T18:41:17.535Z,18.25
2019-06-08T18:43:48.891Z,18.25
2019-06-08T18:46:18.001Z,18.19
2019-06-08T18:48:49.530Z,18.14
2019-06-08T18:51:19.431Z,18.04
2019-06-08T18:54:05.657Z,17.97
2019-06-08T18:56:20.043Z,17.89
2019-06-08T18:58:53.626Z,17.87
2019-06-08T19:01:22.824Z,17.72
2019-06-08T19:03:52.906Z,17.72
2019-06-08T19:06:23.483Z,17.69
2019-06-08T19:08:53.012Z,17.63
2019-06-08T19:11:22.393Z,17.61
2019-06-08T19:13:52.607Z,17.58
2019-06-08T19:16:22.297Z,17.56
2019-06-08T19:18:52.844Z,17.46
2019-06-08T19:21:22.283Z,17.30
2019-06-08T19:23:51.939Z,17.14
2019-06-08T19:26:21.682Z,17.06
2019-06-08T19:28:53.907Z,17.01
2019-06-08T19:31:22.084Z,16.93
2019-06-08T19:33:53.316Z,16.90
2019-06-08T19:36:23.079Z,16.89
2019-06-08T19:38:54.764Z,16.90
2019-06-08T19:41:24.058Z,16.92
2019-06-08T19:43:54.763Z,16.93
2019-06-08T19:46:24.276Z,16.98
2019-06-08T19:48:55.529Z,16.97
2019-06-08T19:51:27.619Z,16.98
2019-06-08T19:53:58.257Z,17.00
2019-06-08T19:56:28.193Z,17.00
2019-06-08T19:59:04.776Z,16.99
2019-06-08T20:01:30.565Z,16.95
2019-06-08T20:04:01.387Z,16.85
2019-06-08T20:06:32.006Z,16.79
2019-06-08T20:09:01.631Z,16.76
2019-06-08T20:11:32.618Z,16.76
2019-06-08T20:14:02.278Z,16.78
2019-06-08T20:16:31.950Z,16.73
2019-06-08T20:19:02.365Z,16.74
2019-06-08T20:21:32.285Z,16.74
2019-06-08T20:24:01.652Z,16.73
2019-06-08T20:26:31.158Z,16.69
2019-06-08T20:29:12.182Z,16.69
2019-06-08T20:31:32.123Z,16.67
2019-06-08T20:34:01.733Z,16.61
2019-06-08T20:36:31.415Z,16.56
2019-06-08T20:39:01.334Z,16.48
2019-06-08T20:41:32.318Z,16.42
2019-06-08T20:44:02.241Z,16.36
2019-06-08T20:46:32.581Z,16.31
2019-06-08T20:49:02.229Z,16.20
2019-06-08T20:51:31.608Z,16.20
2019-06-08T20:54:01.670Z,16.21
2019-06-08T20:56:31.228Z,16.19
2019-06-08T20:59:00.623Z,16.13
2019-06-08T21:01:30.197Z,16.13
2019-06-08T21:03:59.858Z,16.08
2019-06-08T21:06:29.231Z,16.06
2019-06-08T21:08:59.967Z,16.04
2019-06-08T21:11:31.532Z,16.06
2019-06-08T21:14:01.201Z,16.08
2019-06-08T21:16:30.576Z,16.06
2019-06-08T21:19:00.236Z,16.02
2019-06-08T21:21:29.862Z,16.00
2019-06-08T21:24:01.129Z,15.96
2019-06-08T21:26:30.720Z,15.92
2019-06-08T21:29:00.651Z,15.89
2019-06-08T21:31:30.261Z,15.83
2019-06-08T21:34:00.822Z,15.78
2019-06-08T21:36:30.407Z,15.73
2019-06-08T21:39:02.340Z,15.68
2019-06-08T21:41:32.494Z,15.67
2019-06-08T21:44:02.337Z,15.69
2019-06-08T21:46:31.708Z,15.67
2019-06-08T21:49:01.371Z,15.65
2019-06-08T21:51:30.800Z,15.66
2019-06-08T21:54:00.787Z,15.66
2019-06-08T21:56:30.341Z,15.66
2019-06-08T21:59:01.128Z,15.67
2019-06-08T22:01:32.367Z,15.64
2019-06-08T22:04:02.355Z,15.56
2019-06-08T22:06:32.173Z,15.50
2019-06-08T22:09:02.860Z,15.44
2019-06-08T22:11:33.889Z,15.41
2019-06-08T22:14:03.621Z,15.39
2019-06-08T22:16:33.574Z,15.44
2019-06-08T22:19:03.372Z,15.41
2019-06-08T22:21:32.883Z,15.36
2019-06-08T22:24:03.589Z,15.31
2019-06-08T22:26:33.318Z,15.27
2019-06-08T22:29:03.725Z,15.28
2019-06-08T22:31:37.033Z,15.31
2019-06-08T22:34:05.955Z,15.25
2019-06-08T22:36:37.269Z,15.19
2019-06-08T22:39:08.073Z,15.16
2019-06-08T22:41:39.457Z,15.15
2019-06-08T22:44:09.198Z,15.13
2019-06-08T22:46:38.841Z,15.19
2019-06-08T22:49:08.512Z,15.22
2019-06-08T22:51:38.391Z,15.17
2019-06-08T22:54:08.182Z,15.07
2019-06-08T22:56:37.510Z,14.98
2019-06-08T22:59:09.233Z,14.92
2019-06-08T23:01:39.717Z,14.83
2019-06-08T23:04:09.424Z,14.84
2019-06-08T23:06:39.068Z,14.77
2019-06-08T23:09:09.715Z,14.73
2019-06-08T23:11:39.079Z,14.67
2019-06-08T23:14:13.093Z,14.70
2019-06-08T23:16:40.052Z,14.67
2019-06-08T23:19:09.440Z,14.66
2019-06-08T23:21:38.813Z,14.64
2019-06-08T23:24:08.684Z,14.63
2019-06-08T23:26:38.086Z,14.65
2019-06-08T23:29:09.613Z,14.66
2019-06-08T23:31:39.516Z,14.65
2019-06-08T23:34:11.351Z,14.63
2019-06-08T23:36:51.757Z,14.61
2019-06-08T23:39:11.678Z,14.59
2019-06-08T23:41:41.032Z,14.58
2019-06-08T23:44:10.698Z,14.58
2019-06-08T23:46:40.349Z,14.60
2019-06-08T23:49:09.716Z,14.60
2019-06-08T23:51:39.375Z,14.58
2019-06-08T23:54:12.019Z,14.55
2019-06-08T23:56:40.609Z,14.54
2019-06-08T23:59:09.998Z,14.50
